sensor_id;sensor_type;location;lat;lon;timestamp;pressure;altitude;pressure_sealevel;temperature;humidity
45864;BME280;31579;52.354;16.974;2023-03-15T00:00:42;59.6;;;-146.1;100.0
45864;BME280;31579;52.354;16.974;2023-03-15T00:01:46;56.6;;;-146.1;100.0
45864;BME280;31579;52.354;16.974;2023-03-15T00:02:49;41.0;;;-146.1;100.0
45864;BME280;31579;52.354;16.974;2023-03-15T00:03:53;49.3;;;-146.1;100.0
45864;BME280;31579;52.354;16.974;2023-03-15T00:04:57;54.1;;;-146.1;100.0
45864;BME280;31579;52.354;16.974;2023-03-15T00:06:00;38.9;;;-146.1;100.0
45864;BME280;31579;52.354;16.974;2023-03-15T00:07:04;48.7;;;-146.1;100.0
45864;BME280;31579;52.354;16.974;2023-03-15T00:08:08;37.2;;;-146.1;100.0
45864;BME280;31579;52.354;16.974;2023-03-15T00:09:26;99.0;;;-146.1;100.0
45864;BME280;31579;52.354;16.974;2023-03-15T00:10:30;58.6;;;-146.1;100.0
45864;BME280;31579;52.354;16.974;2023-03-15T00:11:34;48.6;;;-146.1;100.0
45864;BME280;31579;52.354;16.974;2023-03-15T00:12:39;44.4;;;-146.1;100.0
45864;BME280;31579;52.354;16.974;2023-03-15T00:13:44;56.6;;;-146.1;100.0
45864;BME280;31579;52.354;16.974;2023-03-15T00:14:49;54.9;;;-146.1;100.0
45864;BME280;31579;52.354;16.974;2023-03-15T00:15:51;41.1;;;-146.1;100.0
45864;BME280;31579;52.354;16.974;2023-03-15T00:16:53;37.6;;;-146.1;100.0
45864;BME280;31579;52.354;16.974;2023-03-15T00:17:56;39.5;;;-146.1;100.0
45864;BME280;31579;52.354;16.974;2023-03-15T00:19:00;56.3;;;-146.1;100.0
45864;BME280;31579;52.354;16.974;2023-03-15T00:20:05;64.7;;;-146.1;100.0
45864;BME280;31579;52.354;16.974;2023-03-15T00:21:09;68.2;;;-146.1;100.0
45864;BME280;31579;52.354;16.974;2023-03-15T00:22:13;68.8;;;-146.1;100.0
45864;BME280;31579;52.354;16.974;2023-03-15T00:23:17;67.6;;;-146.1;100.0
45864;BME280;31579;52.354;16.974;2023-03-15T00:24:21;65.6;;;-146.1;100.0
45864;BME280;31579;52.354;16.974;2023-03-15T00:25:25;64.6;;;-146.1;100.0
45864;BME280;31579;52.354;16.974;2023-03-15T00:26:29;63.9;;;-146.1;100.0
45864;BME280;31579;52.354;16.974;2023-03-15T00:27:33;63.3;;;-146.1;100.0
45864;BME280;31579;52.354;16.974;2023-03-15T00:28:37;62.7;;;-146.1;100.0
45864;BME280;31579;52.354;16.974;2023-03-15T00:29:40;51.5;;;-146.1;100.0
45864;BME280;31579;52.354;16.974;2023-03-15T00:30:44;59.3;;;-146.1;100.0
45864;BME280;31579;52.354;16.974;2023-03-15T00:31:47;54.0;;;-146.1;100.0
45864;BME280;31579;52.354;16.974;2023-03-15T00:32:51;51.4;;;-146.1;100.0
45864;BME280;31579;52.354;16.974;2023-03-15T00:33:54;68.6;;;-146.1;100.0
45864;BME280;31579;52.354;16.974;2023-03-15T00:34:58;76.1;;;-146.1;100.0
45864;BME280;31579;52.354;16.974;2023-03-15T00:36:02;58.3;;;-146.1;100.0
45864;BME280;31579;52.354;16.974;2023-03-15T00:37:03;58.8;;;-146.1;100.0
45864;BME280;31579;52.354;16.974;2023-03-15T00:38:07;82.2;;;-146.1;100.0
45864;BME280;31579;52.354;16.974;2023-03-15T00:39:11;91.9;;;-146.1;100.0
45864;BME280;31579;52.354;16.974;2023-03-15T00:40:14;80.8;;;-146.1;100.0
45864;BME280;31579;52.354;16.974;2023-03-15T00:41:18;90.0;;;-146.1;100.0
45864;BME280;31579;52.354;16.974;2023-03-15T00:42:20;72.0;;;-146.1;100.0
45864;BME280;31579;52.354;16.974;2023-03-15T00:43:25;87.5;;;-146.1;100.0
45864;BME280;31579;52.354;16.974;2023-03-15T00:44:29;84.9;;;-146.1;100.0
45864;BME280;31579;52.354;16.974;2023-03-15T00:45:33;98.6;;;-146.1;100.0
45864;BME280;31579;52.354;16.974;2023-03-15T00:46:37;104.6;;;-146.1;100.0
45864;BME280;31579;52.354;16.974;2023-03-15T00:47:40;90.8;;;-146.1;100.0
45864;BME280;31579;52.354;16.974;2023-03-15T00:48:46;83.5;;;-146.1;100.0
45864;BME280;31579;52.354;16.974;2023-03-15T00:49:47;96.8;;;-146.1;100.0
45864;BME280;31579;52.354;16.974;2023-03-15T00:51:00;103.4;;;-146.1;100.0
45864;BME280;31579;52.354;16.974;2023-03-15T00:51:54;88.0;;;-146.1;100.0
45864;BME280;31579;52.354;16.974;2023-03-15T00:52:57;81.1;;;-146.1;100.0
45864;BME280;31579;52.354;16.974;2023-03-15T00:54:01;95.5;;;-146.1;100.0
45864;BME280;31579;52.354;16.974;2023-03-15T00:55:04;85.1;;;-146.1;100.0
45864;BME280;31579;52.354;16.974;2023-03-15T00:56:08;79.9;;;-146.1;100.0
45864;BME280;31579;52.354;16.974;2023-03-15T00:57:10;79.0;;;-146.1;100.0
45864;BME280;31579;52.354;16.974;2023-03-15T00:58:13;80.0;;;-146.1;100.0
45864;BME280;31579;52.354;16.974;2023-03-15T00:59:16;80.1;;;-146.1;100.0
45864;BME280;31579;52.354;16.974;2023-03-15T01:00:21;100.1;;;-146.1;100.0
45864;BME280;31579;52.354;16.974;2023-03-15T01:01:25;89.9;;;-146.1;100.0
45864;BME280;31579;52.354;16.974;2023-03-15T01:02:27;84.5;;;-146.1;100.0
45864;BME280;31579;52.354;16.974;2023-03-15T01:03:30;82.1;;;-146.1;100.0
45864;BME280;31579;52.354;16.974;2023-03-15T01:04:33;82.6;;;-146.1;100.0
45864;BME280;31579;52.354;16.974;2023-03-15T01:05:36;83.8;;;-146.1;100.0
45864;BME280;31579;52.354;16.974;2023-03-15T01:06:40;82.9;;;-146.1;100.0
45864;BME280;31579;52.354;16.974;2023-03-15T01:07:44;105.5;;;-146.1;100.0
45864;BME280;31579;52.354;16.974;2023-03-15T01:08:47;94.4;;;-146.1;100.0
45864;BME280;31579;52.354;16.974;2023-03-15T01:09:50;87.0;;;-146.1;100.0
45864;BME280;31579;52.354;16.974;2023-03-15T01:10:53;83.8;;;-146.1;100.0
45864;BME280;31579;52.354;16.974;2023-03-15T01:11:57;104.1;;;-146.1;100.0
45864;BME280;31579;52.354;16.974;2023-03-15T01:13:01;110.3;;;-146.1;100.0
45864;BME280;31579;52.354;16.974;2023-03-15T01:14:04;90.7;;;-146.1;100.0
45864;BME280;31579;52.354;16.974;2023-03-15T01:15:08;80.4;;;-146.1;100.0
45864;BME280;31579;52.354;16.974;2023-03-15T01:16:11;75.7;;;-146.1;100.0
45864;BME280;31579;52.354;16.974;2023-03-15T01:17:13;75.5;;;-146.1;100.0
45864;BME280;31579;52.354;16.974;2023-03-15T01:18:16;74.0;;;-146.1;100.0
45864;BME280;31579;52.354;16.974;2023-03-15T01:19:19;75.5;;;-146.1;100.0
45864;BME280;31579;52.354;16.974;2023-03-15T01:20:22;76.2;;;-146.1;100.0
45864;BME280;31579;52.354;16.974;2023-03-15T01:21:25;77.1;;;-146.1;100.0
45864;BME280;31579;52.354;16.974;2023-03-15T01:22:28;78.3;;;-146.1;100.0
45864;BME280;31579;52.354;16.974;2023-03-15T01:23:31;78.6;;;-146.1;100.0
45864;BME280;31579;52.354;16.974;2023-03-15T01:24:35;100.7;;;-146.1;100.0
45864;BME280;31579;52.354;16.974;2023-03-15T01:25:38;88.3;;;-146.1;100.0
45864;BME280;31579;52.354;16.974;2023-03-15T01:26:41;80.3;;;-146.1;100.0
45864;BME280;31579;52.354;16.974;2023-03-15T01:27:44;76.4;;;-146.1;100.0
45864;BME280;31579;52.354;16.974;2023-03-15T01:28:48;75.1;;;-146.1;100.0
45864;BME280;31579;52.354;16.974;2023-03-15T01:29:51;76.1;;;-146.1;100.0
45864;BME280;31579;52.354;16.974;2023-03-15T01:30:54;76.2;;;-146.1;100.0
45864;BME280;31579;52.354;16.974;2023-03-15T01:31:57;77.3;;;-146.1;100.0
45864;BME280;31579;52.354;16.974;2023-03-15T01:33:09;193.9;;;-146.1;100.0
45864;BME280;31579;52.354;16.974;2023-03-15T01:34:12;104.6;;;-146.1;100.0
45864;BME280;31579;52.354;16.974;2023-03-15T01:35:15;74.3;;;-146.1;100.0
45864;BME280;31579;52.354;16.974;2023-03-15T01:36:18;61.6;;;-146.1;100.0
45864;BME280;31579;52.354;16.974;2023-03-15T01:37:21;57.2;;;-146.1;100.0
45864;BME280;31579;52.354;16.974;2023-03-15T01:38:24;56.2;;;-146.1;100.0
45864;BME280;31579;52.354;16.974;2023-03-15T01:39:28;56.0;;;-146.1;100.0
45864;BME280;31579;52.354;16.974;2023-03-15T01:40:30;57.2;;;-146.1;100.0
45864;BME280;31579;52.354;16.974;2023-03-15T01:41:33;56.8;;;-146.1;100.0
45864;BME280;31579;52.354;16.974;2023-03-15T01:42:49;57.9;;;-146.1;100.0
45864;BME280;31579;52.354;16.974;2023-03-15T01:43:40;58.1;;;-146.1;100.0
45864;BME280;31579;52.354;16.974;2023-03-15T01:45:52;59.3;;;-146.1;100.0
45864;BME280;31579;52.354;16.974;2023-03-15T01:46:49;62.0;;;-146.1;100.0
45864;BME280;31579;52.354;16.974;2023-03-15T01:47:52;62.6;;;-146.1;100.0
45864;BME280;31579;52.354;16.974;2023-03-15T01:51:04;51.6;;;-146.1;100.0
45864;BME280;31579;52.354;16.974;2023-03-15T01:52:05;54.1;;;-146.1;100.0
45864;BME280;31579;52.354;16.974;2023-03-15T01:53:06;62.3;;;-146.1;100.0
45864;BME280;31579;52.354;16.974;2023-03-15T01:54:14;74.3;;;-146.1;100.0
45864;BME280;31579;52.354;16.974;2023-03-15T01:55:14;82.3;;;-146.1;100.0
45864;BME280;31579;52.354;16.974;2023-03-15T01:56:15;87.4;;;-146.1;100.0
45864;BME280;31579;52.354;16.974;2023-03-15T01:57:21;89.7;;;-146.1;100.0
45864;BME280;31579;52.354;16.974;2023-03-15T01:58:23;92.0;;;-146.1;100.0
45864;BME280;31579;52.354;16.974;2023-03-15T01:59:26;93.5;;;-146.1;100.0
45864;BME280;31579;52.354;16.974;2023-03-15T02:00:28;95.2;;;-146.1;100.0
45864;BME280;31579;52.354;16.974;2023-03-15T02:01:31;96.9;;;-146.1;100.0
45864;BME280;31579;52.354;16.974;2023-03-15T02:02:34;98.2;;;-146.1;100.0
45864;BME280;31579;52.354;16.974;2023-03-15T02:03:38;98.8;;;-146.1;100.0
45864;BME280;31579;52.354;16.974;2023-03-15T02:04:41;98.8;;;-146.1;100.0
45864;BME280;31579;52.354;16.974;2023-03-15T02:05:47;98.4;;;-146.1;100.0
45864;BME280;31579;52.354;16.974;2023-03-15T02:06:46;98.7;;;-146.1;100.0
45864;BME280;31579;52.354;16.974;2023-03-15T02:07:49;98.6;;;-146.1;100.0
45864;BME280;31579;52.354;16.974;2023-03-15T02:08:53;99.1;;;-146.1;100.0
45864;BME280;31579;52.354;16.974;2023-03-15T02:10:59;99.4;;;-146.1;100.0
45864;BME280;31579;52.354;16.974;2023-03-15T02:12:00;87.9;;;-146.1;100.0
45864;BME280;31579;52.354;16.974;2023-03-15T02:13:04;92.7;;;-146.1;100.0
45864;BME280;31579;52.354;16.974;2023-03-15T02:14:08;99.1;;;-146.1;100.0
45864;BME280;31579;52.354;16.974;2023-03-15T02:15:10;103.9;;;-146.1;100.0
45864;BME280;31579;52.354;16.974;2023-03-15T02:16:14;106.4;;;-146.1;100.0
45864;BME280;31579;52.354;16.974;2023-03-15T02:17:17;106.6;;;-146.1;100.0
45864;BME280;31579;52.354;16.974;2023-03-15T02:18:20;107.0;;;-146.1;100.0
45864;BME280;31579;52.354;16.974;2023-03-15T02:23:34;109.1;;;-146.1;100.0
45864;BME280;31579;52.354;16.974;2023-03-15T02:26:46;109.5;;;-146.1;100.0
45864;BME280;31579;52.354;16.974;2023-03-15T02:27:46;110.5;;;-146.1;100.0
45864;BME280;31579;52.354;16.974;2023-03-15T02:28:49;111.1;;;-146.1;100.0
45864;BME280;31579;52.354;16.974;2023-03-15T02:29:52;111.0;;;-146.1;100.0
45864;BME280;31579;52.354;16.974;2023-03-15T02:30:55;108.9;;;-146.1;100.0
45864;BME280;31579;52.354;16.974;2023-03-15T02:31:58;109.0;;;-146.1;100.0
45864;BME280;31579;52.354;16.974;2023-03-15T02:33:01;102.6;;;-146.1;100.0
45864;BME280;31579;52.354;16.974;2023-03-15T02:34:04;122.9;;;-146.1;100.0
45864;BME280;31579;52.354;16.974;2023-03-15T02:35:05;154.4;;;-146.1;100.0
45864;BME280;31579;52.354;16.974;2023-03-15T02:37:11;134.7;;;-146.1;100.0
45864;BME280;31579;52.354;16.974;2023-03-15T02:38:14;136.5;;;-146.1;100.0
45864;BME280;31579;52.354;16.974;2023-03-15T02:39:18;137.4;;;-146.1;100.0
45864;BME280;31579;52.354;16.974;2023-03-15T02:40:21;138.5;;;-146.1;100.0
45864;BME280;31579;52.354;16.974;2023-03-15T02:42:27;140.9;;;-146.1;100.0
45864;BME280;31579;52.354;16.974;2023-03-15T02:43:30;140.1;;;-146.1;100.0
45864;BME280;31579;52.354;16.974;2023-03-15T02:44:35;140.9;;;-146.1;100.0
45864;BME280;31579;52.354;16.974;2023-03-15T02:45:36;140.2;;;-146.1;100.0
45864;BME280;31579;52.354;16.974;2023-03-15T02:46:39;138.6;;;-146.1;100.0
45864;BME280;31579;52.354;16.974;2023-03-15T02:47:42;137.3;;;-146.1;100.0
45864;BME280;31579;52.354;16.974;2023-03-15T02:48:46;134.5;;;-146.1;100.0
45864;BME280;31579;52.354;16.974;2023-03-15T02:49:50;134.5;;;-146.1;100.0
45864;BME280;31579;52.354;16.974;2023-03-15T02:50:52;134.0;;;-146.1;100.0
45864;BME280;31579;52.354;16.974;2023-03-15T02:51:56;132.8;;;-146.1;100.0
45864;BME280;31579;52.354;16.974;2023-03-15T02:52:59;133.4;;;-146.1;100.0
45864;BME280;31579;52.354;16.974;2023-03-15T02:54:02;132.8;;;-146.1;100.0
45864;BME280;31579;52.354;16.974;2023-03-15T02:55:06;131.1;;;-146.1;100.0
45864;BME280;31579;52.354;16.974;2023-03-15T02:56:08;130.6;;;-146.1;100.0
45864;BME280;31579;52.354;16.974;2023-03-15T02:57:12;129.7;;;-146.1;100.0
45864;BME280;31579;52.354;16.974;2023-03-15T02:58:14;130.4;;;-146.1;100.0
45864;BME280;31579;52.354;16.974;2023-03-15T02:59:17;127.9;;;-146.1;100.0
45864;BME280;31579;52.354;16.974;2023-03-15T03:00:20;125.9;;;-146.1;100.0
45864;BME280;31579;52.354;16.974;2023-03-15T03:01:23;126.5;;;-146.1;100.0
45864;BME280;31579;52.354;16.974;2023-03-15T03:02:26;124.0;;;-146.1;100.0
45864;BME280;31579;52.354;16.974;2023-03-15T03:03:29;122.6;;;-146.1;100.0
45864;BME280;31579;52.354;16.974;2023-03-15T03:04:32;121.7;;;-146.1;100.0
45864;BME280;31579;52.354;16.974;2023-03-15T03:05:35;120.2;;;-146.1;100.0
45864;BME280;31579;52.354;16.974;2023-03-15T03:06:38;118.9;;;-146.1;100.0
45864;BME280;31579;52.354;16.974;2023-03-15T03:07:41;119.4;;;-146.1;100.0
45864;BME280;31579;52.354;16.974;2023-03-15T03:08:44;116.7;;;-146.1;100.0
45864;BME280;31579;52.354;16.974;2023-03-15T03:09:47;114.6;;;-146.1;100.0
45864;BME280;31579;52.354;16.974;2023-03-15T03:10:50;113.9;;;-146.1;100.0
45864;BME280;31579;52.354;16.974;2023-03-15T03:11:53;114.6;;;-146.1;100.0
45864;BME280;31579;52.354;16.974;2023-03-15T03:12:56;112.3;;;-146.1;100.0
45864;BME280;31579;52.354;16.974;2023-03-15T03:13:59;111.0;;;-146.1;100.0
45864;BME280;31579;52.354;16.974;2023-03-15T03:15:03;109.8;;;-146.1;100.0
45864;BME280;31579;52.354;16.974;2023-03-15T03:16:06;109.2;;;-146.1;100.0
45864;BME280;31579;52.354;16.974;2023-03-15T03:17:09;107.5;;;-146.1;100.0
45864;BME280;31579;52.354;16.974;2023-03-15T03:18:12;106.0;;;-146.1;100.0
45864;BME280;31579;52.354;16.974;2023-03-15T03:19:15;105.0;;;-146.1;100.0
45864;BME280;31579;52.354;16.974;2023-03-15T03:20:19;126.4;;;-146.1;100.0
45864;BME280;31579;52.354;16.974;2023-03-15T03:21:22;113.3;;;-146.1;100.0
45864;BME280;31579;52.354;16.974;2023-03-15T03:22:25;102.4;;;-146.1;100.0
45864;BME280;31579;52.354;16.974;2023-03-15T03:23:29;97.1;;;-146.1;100.0
45864;BME280;31579;52.354;16.974;2023-03-15T03:24:32;94.2;;;-146.1;100.0
45864;BME280;31579;52.354;16.974;2023-03-15T03:25:35;92.3;;;-146.1;100.0
45864;BME280;31579;52.354;16.974;2023-03-15T03:26:38;91.9;;;-146.1;100.0
45864;BME280;31579;52.354;16.974;2023-03-15T03:27:41;90.9;;;-146.1;100.0
45864;BME280;31579;52.354;16.974;2023-03-15T03:28:45;92.0;;;-146.1;100.0
45864;BME280;31579;52.354;16.974;2023-03-15T03:29:47;97.6;;;-146.1;100.0
45864;BME280;31579;52.354;16.974;2023-03-15T03:31:03;174.9;;;-146.1;100.0
45864;BME280;31579;52.354;16.974;2023-03-15T03:32:07;112.0;;;-146.1;100.0
45864;BME280;31579;52.354;16.974;2023-03-15T03:33:10;98.9;;;-146.1;100.0
45864;BME280;31579;52.354;16.974;2023-03-15T03:34:13;93.7;;;-146.1;100.0
45864;BME280;31579;52.354;16.974;2023-03-15T03:35:16;91.5;;;-146.1;100.0
45864;BME280;31579;52.354;16.974;2023-03-15T03:36:04;99.3;;;-146.1;100.0
45864;BME280;31579;52.354;16.974;2023-03-15T03:37:07;87.4;;;-146.1;100.0
45864;BME280;31579;52.354;16.974;2023-03-15T03:38:10;87.8;;;-146.1;100.0
45864;BME280;31579;52.354;16.974;2023-03-15T03:39:13;124.4;;;-146.1;100.0
45864;BME280;31579;52.354;16.974;2023-03-15T03:40:16;136.6;;;-146.1;100.0
45864;BME280;31579;52.354;16.974;2023-03-15T03:41:20;138.5;;;-146.1;100.0
45864;BME280;31579;52.354;16.974;2023-03-15T03:42:23;137.7;;;-146.1;100.0
45864;BME280;31579;52.354;16.974;2023-03-15T03:43:26;137.0;;;-146.1;100.0
45864;BME280;31579;52.354;16.974;2023-03-15T03:44:29;135.4;;;-146.1;100.0
45864;BME280;31579;52.354;16.974;2023-03-15T03:45:32;134.8;;;-146.1;100.0
45864;BME280;31579;52.354;16.974;2023-03-15T03:46:35;134.6;;;-146.1;100.0
45864;BME280;31579;52.354;16.974;2023-03-15T03:47:38;133.5;;;-146.1;100.0
45864;BME280;31579;52.354;16.974;2023-03-15T03:48:41;132.9;;;-146.1;100.0
45864;BME280;31579;52.354;16.974;2023-03-15T03:49:44;131.5;;;-146.1;100.0
45864;BME280;31579;52.354;16.974;2023-03-15T03:50:47;130.7;;;-146.1;100.0
45864;BME280;31579;52.354;16.974;2023-03-15T03:51:50;130.6;;;-146.1;100.0
45864;BME280;31579;52.354;16.974;2023-03-15T03:52:53;130.0;;;-146.1;100.0
45864;BME280;31579;52.354;16.974;2023-03-15T03:53:56;129.2;;;-146.1;100.0
45864;BME280;31579;52.354;16.974;2023-03-15T03:54:59;128.1;;;-146.1;100.0
45864;BME280;31579;52.354;16.974;2023-03-15T03:56:06;122.0;;;-146.1;100.0
45864;BME280;31579;52.354;16.974;2023-03-15T03:57:05;119.2;;;-146.1;100.0
45864;BME280;31579;52.354;16.974;2023-03-15T03:58:09;126.9;;;-146.1;100.0
45864;BME280;31579;52.354;16.974;2023-03-15T03:59:12;128.8;;;-146.1;100.0
45864;BME280;31579;52.354;16.974;2023-03-15T04:00:15;129.8;;;-146.1;100.0
45864;BME280;31579;52.354;16.974;2023-03-15T04:01:18;128.8;;;-146.1;100.0
45864;BME280;31579;52.354;16.974;2023-03-15T04:02:21;127.9;;;-146.1;100.0
45864;BME280;31579;52.354;16.974;2023-03-15T04:03:24;127.7;;;-146.1;100.0
45864;BME280;31579;52.354;16.974;2023-03-15T04:04:27;125.1;;;-146.1;100.0
45864;BME280;31579;52.354;16.974;2023-03-15T04:05:30;124.6;;;-146.1;100.0
45864;BME280;31579;52.354;16.974;2023-03-15T04:06:33;124.4;;;-146.1;100.0
45864;BME280;31579;52.354;16.974;2023-03-15T04:07:36;123.1;;;-146.1;100.0
45864;BME280;31579;52.354;16.974;2023-03-15T04:08:39;122.0;;;-146.1;100.0
45864;BME280;31579;52.354;16.974;2023-03-15T04:09:42;120.8;;;-146.1;100.0
45864;BME280;31579;52.354;16.974;2023-03-15T04:10:48;120.8;;;-146.1;100.0
45864;BME280;31579;52.354;16.974;2023-03-15T04:11:48;120.1;;;-146.1;100.0
45864;BME280;31579;52.354;16.974;2023-03-15T04:12:53;120.1;;;-146.1;100.0
45864;BME280;31579;52.354;16.974;2023-03-15T04:13:54;120.0;;;-146.1;100.0
45864;BME280;31579;52.354;16.974;2023-03-15T04:14:57;119.3;;;-146.1;100.0
45864;BME280;31579;52.354;16.974;2023-03-15T04:16:01;119.2;;;-146.1;100.0
45864;BME280;31579;52.354;16.974;2023-03-15T04:17:04;118.5;;;-146.1;100.0
45864;BME280;31579;52.354;16.974;2023-03-15T04:18:07;118.1;;;-146.1;100.0
45864;BME280;31579;52.354;16.974;2023-03-15T04:19:10;117.9;;;-146.1;100.0
45864;BME280;31579;52.354;16.974;2023-03-15T04:20:14;117.7;;;-146.1;100.0
45864;BME280;31579;52.354;16.974;2023-03-15T04:21:17;117.7;;;-146.1;100.0
45864;BME280;31579;52.354;16.974;2023-03-15T04:22:20;117.6;;;-146.1;100.0
45864;BME280;31579;52.354;16.974;2023-03-15T04:23:23;117.9;;;-146.1;100.0
45864;BME280;31579;52.354;16.974;2023-03-15T04:24:26;117.1;;;-146.1;100.0
45864;BME280;31579;52.354;16.974;2023-03-15T04:25:29;96.8;;;-146.1;100.0
45864;BME280;31579;52.354;16.974;2023-03-15T04:26:32;96.8;;;-146.1;100.0
45864;BME280;31579;52.354;16.974;2023-03-15T04:27:35;97.4;;;-146.1;100.0
45864;BME280;31579;52.354;16.974;2023-03-15T04:28:38;97.4;;;-146.1;100.0
45864;BME280;31579;52.354;16.974;2023-03-15T04:29:41;97.5;;;-146.1;100.0
45864;BME280;31579;52.354;16.974;2023-03-15T04:30:44;97.9;;;-146.1;100.0
45864;BME280;31579;52.354;16.974;2023-03-15T04:31:47;98.3;;;-146.1;100.0
45864;BME280;31579;52.354;16.974;2023-03-15T04:32:50;98.7;;;-146.1;100.0
45864;BME280;31579;52.354;16.974;2023-03-15T04:34:02;165.9;;;-146.1;100.0
45864;BME280;31579;52.354;16.974;2023-03-15T04:35:04;109.1;;;-146.1;100.0
45864;BME280;31579;52.354;16.974;2023-03-15T04:36:07;90.0;;;-146.1;100.0
45864;BME280;31579;52.354;16.974;2023-03-15T04:37:10;84.7;;;-146.1;100.0
45864;BME280;31579;52.354;16.974;2023-03-15T04:38:13;84.0;;;-146.1;100.0
45864;BME280;31579;52.354;16.974;2023-03-15T04:39:16;85.7;;;-146.1;100.0
45864;BME280;31579;52.354;16.974;2023-03-15T04:40:20;87.3;;;-146.1;100.0
45864;BME280;31579;52.354;16.974;2023-03-15T04:41:22;90.2;;;-146.1;100.0
45864;BME280;31579;52.354;16.974;2023-03-15T04:42:25;92.8;;;-146.1;100.0
45864;BME280;31579;52.354;16.974;2023-03-15T04:43:28;94.9;;;-146.1;100.0
45864;BME280;31579;52.354;16.974;2023-03-15T04:44:31;97.0;;;-146.1;100.0
45864;BME280;31579;52.354;16.974;2023-03-15T04:45:34;99.5;;;-146.1;100.0
45864;BME280;31579;52.354;16.974;2023-03-15T04:46:37;102.1;;;-146.1;100.0
45864;BME280;31579;52.354;16.974;2023-03-15T04:47:40;104.9;;;-146.1;100.0
45864;BME280;31579;52.354;16.974;2023-03-15T04:48:43;107.3;;;-146.1;100.0
45864;BME280;31579;52.354;16.974;2023-03-15T04:49:46;110.0;;;-146.1;100.0
45864;BME280;31579;52.354;16.974;2023-03-15T04:50:49;112.1;;;-146.1;100.0
45864;BME280;31579;52.354;16.974;2023-03-15T04:51:52;114.7;;;-146.1;100.0
45864;BME280;31579;52.354;16.974;2023-03-15T04:52:56;123.4;;;-146.1;100.0
45864;BME280;31579;52.354;16.974;2023-03-15T04:53:59;121.0;;;-146.1;100.0
45864;BME280;31579;52.354;16.974;2023-03-15T04:55:02;116.2;;;-146.1;100.0
45864;BME280;31579;52.354;16.974;2023-03-15T04:56:05;115.6;;;-146.1;100.0
45864;BME280;31579;52.354;16.974;2023-03-15T04:57:08;116.9;;;-146.1;100.0
45864;BME280;31579;52.354;16.974;2023-03-15T04:58:11;119.0;;;-146.1;100.0
45864;BME280;31579;52.354;16.974;2023-03-15T04:59:14;121.1;;;-146.1;100.0
45864;BME280;31579;52.354;16.974;2023-03-15T05:00:17;123.1;;;-146.1;100.0
45864;BME280;31579;52.354;16.974;2023-03-15T05:01:27;125.1;;;-146.1;100.0
45864;BME280;31579;52.354;16.974;2023-03-15T05:02:23;127.6;;;-146.1;100.0
45864;BME280;31579;52.354;16.974;2023-03-15T05:03:26;129.9;;;-146.1;100.0
45864;BME280;31579;52.354;16.974;2023-03-15T05:04:29;131.2;;;-146.1;100.0
45864;BME280;31579;52.354;16.974;2023-03-15T05:05:32;133.9;;;-146.1;100.0
45864;BME280;31579;52.354;16.974;2023-03-15T05:06:35;135.8;;;-146.1;100.0
45864;BME280;31579;52.354;16.974;2023-03-15T05:07:38;137.8;;;-146.1;100.0
45864;BME280;31579;52.354;16.974;2023-03-15T05:08:41;139.6;;;-146.1;100.0
45864;BME280;31579;52.354;16.974;2023-03-15T05:09:44;141.0;;;-146.1;100.0
45864;BME280;31579;52.354;16.974;2023-03-15T05:10:47;142.4;;;-146.1;100.0
45864;BME280;31579;52.354;16.974;2023-03-15T05:11:50;143.5;;;-146.1;100.0
45864;BME280;31579;52.354;16.974;2023-03-15T05:12:53;145.0;;;-146.1;100.0
45864;BME280;31579;52.354;16.974;2023-03-15T05:13:56;147.6;;;-146.1;100.0
45864;BME280;31579;52.354;16.974;2023-03-15T05:14:59;145.6;;;-146.1;100.0
45864;BME280;31579;52.354;16.974;2023-03-15T05:16:02;152.9;;;-146.1;100.0
45864;BME280;31579;52.354;16.974;2023-03-15T05:17:06;156.0;;;-146.1;100.0
45864;BME280;31579;52.354;16.974;2023-03-15T05:18:09;158.4;;;-146.1;100.0
45864;BME280;31579;52.354;16.974;2023-03-15T05:19:13;159.1;;;-146.1;100.0
45864;BME280;31579;52.354;16.974;2023-03-15T05:20:17;159.3;;;-146.1;100.0
45864;BME280;31579;52.354;16.974;2023-03-15T05:21:20;160.8;;;-146.1;100.0
45864;BME280;31579;52.354;16.974;2023-03-15T05:22:23;161.5;;;-146.1;100.0
45864;BME280;31579;52.354;16.974;2023-03-15T05:23:26;162.2;;;-146.1;100.0
45864;BME280;31579;52.354;16.974;2023-03-15T05:24:29;163.0;;;-146.1;100.0
45864;BME280;31579;52.354;16.974;2023-03-15T05:25:32;163.3;;;-146.1;100.0
45864;BME280;31579;52.354;16.974;2023-03-15T05:26:35;163.8;;;-146.1;100.0
45864;BME280;31579;52.354;16.974;2023-03-15T05:27:38;164.8;;;-146.1;100.0
45864;BME280;31579;52.354;16.974;2023-03-15T05:28:41;165.5;;;-146.1;100.0
45864;BME280;31579;52.354;16.974;2023-03-15T05:29:44;166.2;;;-146.1;100.0
45864;BME280;31579;52.354;16.974;2023-03-15T05:30:47;166.8;;;-146.1;100.0
45864;BME280;31579;52.354;16.974;2023-03-15T05:31:50;168.0;;;-146.1;100.0
45864;BME280;31579;52.354;16.974;2023-03-15T05:32:53;169.1;;;-146.1;100.0
45864;BME280;31579;52.354;16.974;2023-03-15T05:33:56;170.7;;;-146.1;100.0
45864;BME280;31579;52.354;16.974;2023-03-15T05:34:59;169.3;;;-146.1;100.0
45864;BME280;31579;52.354;16.974;2023-03-15T05:36:03;176.5;;;-146.1;100.0
45864;BME280;31579;52.354;16.974;2023-03-15T05:37:06;179.6;;;-146.1;100.0
45864;BME280;31579;52.354;16.974;2023-03-15T05:38:10;181.1;;;-146.1;100.0
45864;BME280;31579;52.354;16.974;2023-03-15T05:39:12;181.9;;;-146.1;100.0
45864;BME280;31579;52.354;16.974;2023-03-15T05:40:15;182.9;;;-146.1;100.0
45864;BME280;31579;52.354;16.974;2023-03-15T05:41:18;182.7;;;-146.1;100.0
45864;BME280;31579;52.354;16.974;2023-03-15T05:42:21;183.5;;;-146.1;100.0
45864;BME280;31579;52.354;16.974;2023-03-15T05:43:24;183.9;;;-146.1;100.0
45864;BME280;31579;52.354;16.974;2023-03-15T05:44:27;184.3;;;-146.1;100.0
45864;BME280;31579;52.354;16.974;2023-03-15T05:45:30;185.1;;;-146.1;100.0
45864;BME280;31579;52.354;16.974;2023-03-15T05:46:33;186.0;;;-146.1;100.0
45864;BME280;31579;52.354;16.974;2023-03-15T05:47:36;186.8;;;-146.1;100.0
45864;BME280;31579;52.354;16.974;2023-03-15T05:48:39;187.1;;;-146.1;100.0
45864;BME280;31579;52.354;16.974;2023-03-15T05:49:42;187.3;;;-146.1;100.0
45864;BME280;31579;52.354;16.974;2023-03-15T05:50:45;188.8;;;-146.1;100.0
45864;BME280;31579;52.354;16.974;2023-03-15T05:51:48;189.2;;;-146.1;100.0
45864;BME280;31579;52.354;16.974;2023-03-15T05:52:51;189.9;;;-146.1;100.0
45864;BME280;31579;52.354;16.974;2023-03-15T05:53:54;190.9;;;-146.1;100.0